Portada
METAR-TAF:

METAR-TAF

Aeroports :

Manta, Equador

latitud: 00-57S, longitud: 080-41W, altitud: 13 m

Observació

L'informe es va fer fa 39 minuts, a les 08:00 UTC
Vent 7 kt del Sud-Oest
Temperatura 23°C
Humitat 83%
Pressió 1012 hPa
Visibilitat 10 km o més
Cel cobert a una alçada de 2000 ft

METAR: SEMT 210800Z 22007KT 9999 OVC020 23/20 Q1012 RMK A2989

Hora: 03:39 (08:39 UTC)

Pronòstic

L'informe es va fer fa 4 hores i 29 minuts, a les 04:10 UTC
Pronòstic vàlid del 21 a les 06 UTC al 22 a les 06 UTC
Vent 8 kt del Sud/Sud-Oest
Visibilitat 10 km o més
Cel cobert a una alçada de 2000 ft
Evolucionant progressivament
l' 21 a les 18 UTC al 21 a les 19 UTC
Vent 12 kt del Oest/Nord-Oest
Núvols disperses a una alçada de 2300 ft
Evolucionant progressivament
l' 21 a les 21 UTC al 21 a les 23 UTC
Vent 10 kt del Sud/Sud-Oest
Cel ennuvolat a una alçada de 2300 ft

TAF: SEMT 210410Z 2106/2206 21008KT 9999 OVC020 BECMG 2118/2119 30012KT SCT023 BECMG 2121/2123 21010KT BKN023 TX28/2120Z TN22/2110Z

Observacions i pronòstics meteorològics de més de 4000 aeroports (METAR i TAF).

Les estacions disponibles són els punts grocs i vermells al mapa.

Posi el ratolí al punt desitjat per veure el nom de l'estació.

Feu clic per veure les observacions i els pronòstics meteorològics.

Per canviar el mapa: feu clic els botons verds amb una creu de color negre per apropar; al botó verd amb un guió per allunyar la imatge; o en les fletxes verdes per a mapes adjacents.


METAR-TAF: